Time;durP1;ratioP1;P1;durP2;ratioP2;P2;SDS_P1;SDS_P2;PMS_P1;PMS_P2;Temp;Humidity;BMP_temperature;BMP_pressure;BME280_temperature;BME280_humidity;BME280_pressure;Samples;Min_cycle;Max_cycle;Signal;HPM_P1;HPM_P2
2023/04/17 00:01:35;;;;;;;6.20;4.17;;;;;;;9.42;75.97;96455.97;4989915;28;20808;-68
2023/04/17 00:04:02;;;;;;;5.77;5.17;;;;;;;9.52;75.31;96458.19;4989839;28;21106;-68
2023/04/17 00:06:27;;;;;;;4.80;4.40;;;;;;;9.38;75.42;96450.03;4989221;28;20464;-68
2023/04/17 00:08:53;;;;;;;5.67;5.17;;;;;;;9.48;75.50;96459.22;4989660;28;21127;-68
2023/04/17 00:11:18;;;;;;;5.13;4.63;;;;;;;9.48;75.41;96453.97;4989537;28;20197;-68
2023/04/17 00:13:44;;;;;;;5.37;4.33;;;;;;;9.48;75.55;96459.22;4989628;28;20160;-67
2023/04/17 00:16:11;;;;;;;5.17;4.70;;;;;;;9.35;75.83;96454.50;4989198;28;20165;-68
2023/04/17 00:18:37;;;;;;;8.67;5.27;;;;;;;9.31;75.79;96456.41;4989113;28;20304;-68
2023/04/17 00:21:02;;;;;;;5.90;5.40;;;;;;;9.43;76.29;96452.47;4987463;28;21443;-68
2023/04/17 00:23:28;;;;;;;11.83;4.90;;;;;;;9.46;76.01;96455.81;4989277;28;20418;-67
2023/04/17 00:25:53;;;;;;;4.80;4.30;;;;;;;9.35;75.26;96451.88;4986627;28;20205;-68
2023/04/17 00:28:19;;;;;;;5.83;5.33;;;;;;;9.44;75.72;96446.31;4988905;28;20538;-68
2023/04/17 00:30:45;;;;;;;4.60;4.20;;;;;;;9.50;75.27;96446.06;4988208;28;20188;-68
2023/04/17 00:33:10;;;;;;;5.50;5.00;;;;;;;9.42;75.98;96448.13;4988248;28;20613;-67
2023/04/17 00:35:36;;;;;;;4.93;4.37;;;;;;;9.53;75.73;96441.56;4988936;28;20409;-68
2023/04/17 00:38:01;;;;;;;7.77;4.47;;;;;;;9.34;75.58;96451.03;4987793;28;20176;-68
2023/04/17 00:40:27;;;;;;;6.03;4.60;;;;;;;9.45;76.13;96446.25;4988951;28;20180;-68
2023/04/17 00:42:58;;;;;;;5.30;4.67;;;;;;;9.36;75.97;96441.38;4988444;28;20220;-68
2023/04/17 00:45:23;;;;;;;5.77;5.20;;;;;;;9.52;75.84;96445.09;4988580;28;20308;-68
2023/04/17 00:47:50;;;;;;;6.23;4.67;;;;;;;9.56;75.55;96434.50;4988370;28;20495;-68
2023/04/17 00:50:15;;;;;;;5.50;4.77;;;;;;;9.55;75.48;96438.88;4987225;28;20194;-68
2023/04/17 00:52:41;;;;;;;5.00;4.50;;;;;;;9.43;75.51;96439.38;4988479;28;20519;-68
2023/04/17 00:55:07;;;;;;;4.33;3.93;;;;;;;9.57;75.43;96438.81;4988073;28;20641;-68
2023/04/17 00:57:33;;;;;;;5.00;4.50;;;;;;;9.42;75.66;96433.25;4986808;28;20176;-69
2023/04/17 00:59:58;;;;;;;5.57;4.53;;;;;;;9.46;75.35;96437.47;4988446;28;20813;-68
2023/04/17 01:02:25;;;;;;;5.03;4.60;;;;;;;9.44;75.54;96436.66;4988278;28;20528;-68
2023/04/17 01:04:50;;;;;;;5.87;4.70;;;;;;;9.40;75.58;96436.84;4988207;28;20193;-68
2023/04/17 01:07:15;;;;;;;5.00;4.47;;;;;;;9.42;75.01;96430.63;4987935;28;20486;-68
2023/04/17 01:09:41;;;;;;;5.53;4.90;;;;;;;9.46;75.03;96432.22;4988186;28;20173;-68
2023/04/17 01:12:21;;;;;;;5.53;4.67;;;;;;;9.53;75.54;96431.06;4988147;28;20204;-68
2023/04/17 01:14:50;;;;;;;5.10;4.60;;;;;;;9.48;75.10;96425.16;4987967;28;20264;-68
2023/04/17 01:17:17;;;;;;;5.50;5.00;;;;;;;9.30;75.81;96431.13;4987833;28;21217;-69
2023/04/17 01:19:43;;;;;;;6.20;4.87;;;;;;;9.31;76.55;96428.44;4988139;28;20419;-68
2023/04/17 01:22:08;;;;;;;4.87;4.47;;;;;;;9.24;76.38;96433.97;4986331;28;20440;-68
2023/04/17 01:24:35;;;;;;;4.80;4.40;;;;;;;9.34;75.92;96430.09;4987929;28;20219;-68
2023/04/17 01:27:01;;;;;;;5.13;4.63;;;;;;;9.43;75.67;96432.34;4987635;28;20517;-68
2023/04/17 01:29:27;;;;;;;4.20;3.77;;;;;;;9.47;75.72;96428.72;4987836;28;21080;-68
2023/04/17 01:31:52;;;;;;;5.20;4.70;;;;;;;9.31;75.84;96425.81;4987653;28;20440;-68
2023/04/17 01:34:18;;;;;;;4.70;4.30;;;;;;;9.42;76.12;96433.25;4987923;28;20168;-69
2023/04/17 01:36:44;;;;;;;5.90;4.27;;;;;;;9.37;76.30;96432.59;4987424;28;20239;-67
2023/04/17 01:39:09;;;;;;;5.43;4.60;;;;;;;9.36;76.92;96435.28;4987647;28;20177;-68
2023/04/17 01:41:35;;;;;;;5.13;4.33;;;;;;;9.24;77.14;96433.97;4987371;28;20447;-68
2023/04/17 01:44:01;;;;;;;4.30;3.90;;;;;;;9.18;77.14;96435.06;4987246;28;20519;-68
2023/04/17 01:46:27;;;;;;;4.27;3.87;;;;;;;9.20;77.80;96433.22;4987084;28;21142;-67
2023/04/17 01:48:53;;;;;;;4.53;4.00;;;;;;;8.99;78.25;96434.03;4987503;28;20424;-68
2023/04/17 01:51:19;;;;;;;6.17;5.17;;;;;;;9.05;77.67;96437.28;4987436;28;20349;-68
2023/04/17 01:53:44;;;;;;;4.67;4.17;;;;;;;9.13;77.33;96444.00;4987510;28;20806;-68
2023/04/17 01:56:11;;;;;;;7.43;4.40;;;;;;;9.05;78.39;96444.28;4987247;28;20710;-68
2023/04/17 01:58:37;;;;;;;5.50;4.80;;;;;;;8.87;79.18;96441.41;4988277;28;20287;-68
2023/04/17 02:01:02;;;;;;;4.90;4.50;;;;;;;8.86;79.02;96444.13;4987466;28;20463;-69
2023/04/17 02:03:28;;;;;;;6.10;4.97;;;;;;;8.89;78.93;96439.59;4987620;28;20199;-68
2023/04/17 02:05:53;;;;;;;5.47;4.97;;;;;;;8.70;78.92;96441.19;4986890;28;20197;-69
2023/04/17 02:08:19;;;;;;;5.77;5.17;;;;;;;8.85;78.14;96439.78;4986831;28;20183;-68
2023/04/17 02:10:45;;;;;;;5.60;4.80;;;;;;;9.04;77.80;96432.09;4987342;28;20196;-68
2023/04/17 02:13:10;;;;;;;5.17;4.67;;;;;;;9.16;76.98;96436.03;4987196;28;20579;-68
2023/04/17 02:15:36;;;;;;;5.43;4.73;;;;;;;8.89;78.86;96430.91;4987254;28;20227;-68
2023/04/17 02:18:04;;;;;;;6.00;5.40;;;;;;;9.08;77.49;96434.53;4987253;28;20579;-68
2023/04/17 02:20:30;;;;;;;5.37;4.87;;;;;;;8.95;77.51;96433.28;4986787;28;20494;-68
2023/04/17 02:22:57;;;;;;;5.03;4.63;;;;;;;8.96;78.15;96427.16;4987469;28;20424;-68
2023/04/17 02:25:22;;;;;;;6.70;4.90;;;;;;;9.02;78.18;96434.75;4987286;28;20597;-68
2023/04/17 02:27:48;;;;;;;4.97;4.53;;;;;;;8.89;78.00;96431.75;4986936;28;20424;-68
2023/04/17 02:30:13;;;;;;;7.63;4.70;;;;;;;8.89;78.54;96436.16;4986970;28;20227;-67
2023/04/17 02:32:38;;;;;;;5.40;4.90;;;;;;;9.02;78.37;96437.38;4987263;28;20199;-68
2023/04/17 02:35:05;;;;;;;7.00;6.00;;;;;;;8.94;78.33;96447.28;4987297;28;20576;-68
2023/04/17 02:37:30;;;;;;;6.20;5.60;;;;;;;8.82;78.77;96443.38;4986763;28;20177;-68
2023/04/17 02:39:55;;;;;;;6.87;5.13;;;;;;;8.75;79.92;96446.25;4985565;28;20790;-68
2023/04/17 02:42:21;;;;;;;6.73;4.87;;;;;;;8.96;78.75;96437.63;4985250;28;20704;-68
2023/04/17 02:44:46;;;;;;;5.30;4.80;;;;;;;9.01;78.48;96445.31;4987045;28;20173;-68
2023/04/17 02:47:11;;;;;;;5.43;4.93;;;;;;;8.83;78.60;96444.22;4986774;28;20206;-68
2023/04/17 02:49:37;;;;;;;7.17;5.03;;;;;;;8.95;77.84;96437.66;4987003;28;20176;-68
2023/04/17 02:52:03;;;;;;;8.07;5.50;;;;;;;8.92;78.07;96436.03;4987240;28;20197;-70
2023/04/17 02:54:28;;;;;;;6.73;5.57;;;;;;;9.13;77.40;96428.28;5002082;28;20272;-69
2023/04/17 02:56:57;;;;;;;5.93;5.43;;;;;;;9.25;76.78;96431.28;4986627;28;20224;-69
2023/04/17 02:59:25;;;;;;;6.17;5.57;;;;;;;9.01;77.98;96430.44;4987244;28;20952;-69
2023/04/17 03:01:51;;;;;;;14.03;6.43;;;;;;;9.17;77.59;96433.34;4986955;28;20494;-68
2023/04/17 03:04:16;;;;;;;10.53;6.30;;;;;;;9.14;76.87;96433.44;4986824;28;20416;-68
2023/04/17 03:06:42;;;;;;;6.27;5.67;;;;;;;9.18;77.51;96434.22;4986440;28;20205;-68
2023/04/17 03:09:07;;;;;;;6.30;5.77;;;;;;;9.19;77.51;96433.28;4986761;28;20202;-67
2023/04/17 03:11:33;;;;;;;5.97;5.40;;;;;;;9.18;77.60;96434.22;4986725;28;20211;-69
2023/04/17 03:13:58;;;;;;;5.87;5.27;;;;;;;9.17;77.10;96429.88;4987027;28;20239;-69
2023/04/17 03:16:24;;;;;;;8.90;6.27;;;;;;;8.98;77.51;96427.97;4986882;28;20834;-68
2023/04/17 03:18:49;;;;;;;6.43;5.70;;;;;;;9.08;77.70;96433.69;4987858;28;20177;-69
2023/04/17 03:21:15;;;;;;;5.90;5.40;;;;;;;8.96;77.09;96431.53;4990152;28;20638;-68
2023/04/17 03:23:40;;;;;;;6.80;6.10;;;;;;;8.95;78.31;96430.66;4990219;28;20169;-69
2023/04/17 03:26:06;;;;;;;7.30;6.17;;;;;;;8.72;79.06;96441.13;4989931;28;20251;-68
2023/04/17 03:28:32;;;;;;;7.60;5.67;;;;;;;9.00;78.17;96435.72;4990252;28;20211;-68
2023/04/17 03:30:58;;;;;;;6.23;5.63;;;;;;;8.83;78.98;96436.34;4989893;28;20439;-68
2023/04/17 03:33:24;;;;;;;7.23;6.53;;;;;;;8.85;79.47;96445.84;4989969;28;20177;-68
2023/04/17 03:35:50;;;;;;;8.33;6.20;;;;;;;9.03;78.17;96436.50;4989860;28;20403;-69
2023/04/17 03:38:16;;;;;;;7.50;5.80;;;;;;;9.04;78.43;96432.94;4989891;28;20446;-68
2023/04/17 03:40:42;;;;;;;6.90;5.93;;;;;;;9.05;77.77;96441.69;4989723;28;20193;-68
2023/04/17 03:43:07;;;;;;;7.90;6.90;;;;;;;9.19;77.86;96436.78;4989782;28;20525;-68
2023/04/17 03:45:32;;;;;;;7.30;6.60;;;;;;;9.17;77.02;96435.13;4989649;28;20846;-68
2023/04/17 03:47:58;;;;;;;7.73;6.67;;;;;;;9.24;77.11;96444.47;4989577;28;20185;-68
2023/04/17 03:50:23;;;;;;;7.20;6.20;;;;;;;9.02;78.18;96441.78;4989440;28;20618;-68
2023/04/17 03:52:49;;;;;;;7.53;6.83;;;;;;;9.18;77.54;96442.06;4988901;28;20180;-69
2023/04/17 03:55:15;;;;;;;6.73;6.10;;;;;;;9.06;77.24;96449.44;4988980;28;20177;-68
2023/04/17 03:57:41;;;;;;;9.27;6.40;;;;;;;9.17;77.56;96443.81;4980356;28;20177;-68
2023/04/17 04:00:09;;;;;;;8.10;7.30;;;;;;;9.07;77.29;96448.56;4987186;28;20420;-69
2023/04/17 04:02:35;;;;;;;7.70;6.60;;;;;;;8.97;77.70;96447.16;4975426;28;20356;-69
2023/04/17 04:05:01;;;;;;;7.30;6.60;;;;;;;9.07;77.27;96453.78;4992372;28;20465;-68
2023/04/17 04:07:26;;;;;;;10.00;7.20;;;;;;;9.11;77.63;96451.91;4969947;28;20911;-69
2023/04/17 04:09:52;;;;;;;8.80;6.67;;;;;;;9.19;77.41;96443.75;4970404;28;20174;-69
2023/04/17 04:12:17;;;;;;;9.37;8.47;;;;;;;9.09;77.85;96457.22;4986754;28;20201;-69
2023/04/17 04:14:45;;;;;;;7.90;7.10;;;;;;;9.03;78.13;96454.81;4972016;28;20190;-69
2023/04/17 04:17:10;;;;;;;7.27;6.57;;;;;;;9.13;77.03;96451.84;4978015;28;20628;-69
2023/04/17 04:19:36;;;;;;;13.87;8.57;;;;;;;9.18;77.74;96461.22;4980366;28;20436;-69
2023/04/17 04:22:03;;;;;;;7.97;7.17;;;;;;;9.07;77.13;96459.03;4970003;28;20197;-69
2023/04/17 04:24:29;;;;;;;7.30;6.60;;;;;;;8.67;79.19;96457.84;4985185;28;20254;-69
2023/04/17 04:27:04;;;;;;;11.13;8.43;;;;;;;8.91;78.36;96463.13;5003065;28;20468;-69
2023/04/17 04:29:30;;;;;;;9.73;6.97;;;;;;;9.12;77.12;96453.63;4989210;28;20524;-69
2023/04/17 04:31:55;;;;;;;9.73;7.10;;;;;;;9.06;77.23;96457.31;4976979;28;20544;-69
2023/04/17 04:34:24;;;;;;;11.93;8.50;;;;;;;9.08;77.47;96462.50;4971026;28;20467;-69
2023/04/17 04:36:52;;;;;;;11.63;8.30;;;;;;;9.15;77.93;96457.88;4971988;28;20195;-69
2023/04/17 04:39:21;;;;;;;18.23;9.03;;;;;;;9.10;78.05;96463.28;4987084;28;20424;-68
2023/04/17 04:41:48;;;;;;;10.27;8.20;;;;;;;9.16;77.07;96467.44;4987001;28;20509;-69
2023/04/17 04:44:17;;;;;;;11.53;8.93;;;;;;;9.24;76.66;96461.00;4988450;28;20479;-67
2023/04/17 04:46:43;;;;;;;9.00;8.10;;;;;;;9.03;77.37;96460.03;4988145;28;20474;-69
2023/04/17 04:49:09;;;;;;;9.83;8.60;;;;;;;9.08;77.51;96460.72;4988163;28;20423;-68
2023/04/17 04:51:35;;;;;;;10.60;8.30;;;;;;;9.25;77.37;96467.09;4988148;28;20447;-68
2023/04/17 04:54:01;;;;;;;10.10;7.90;;;;;;;9.04;78.01;96471.38;4988267;28;20185;-69
2023/04/17 04:56:27;;;;;;;9.40;7.50;;;;;;;9.00;78.17;96472.38;4987736;28;20256;-67
2023/04/17 04:58:52;;;;;;;13.67;8.23;;;;;;;9.04;77.64;96472.22;4988116;28;20471;-67
2023/04/17 05:01:18;;;;;;;16.70;9.30;;;;;;;9.19;76.93;96467.31;4988264;28;20440;-68
2023/04/17 05:03:44;;;;;;;21.67;9.13;;;;;;;9.11;77.38;96478.09;4988761;28;20188;-68
2023/04/17 05:06:10;;;;;;;17.13;8.73;;;;;;;9.15;77.72;96474.44;4988721;28;20312;-69
2023/04/17 05:08:36;;;;;;;12.40;8.20;;;;;;;8.94;78.42;96483.94;4989859;28;20180;-68
2023/04/17 05:11:02;;;;;;;12.30;8.30;;;;;;;9.04;78.02;96484.44;5011432;28;20189;-68
2023/04/17 05:13:29;;;;;;;10.10;8.93;;;;;;;9.04;77.80;96484.44;4996858;28;20420;-68
2023/04/17 05:15:55;;;;;;;10.60;8.50;;;;;;;9.15;77.48;96477.06;4990935;28;20408;-68
2023/04/17 05:18:21;;;;;;;9.73;8.63;;;;;;;9.03;77.67;96486.22;4988784;28;21124;-68
2023/04/17 05:20:47;;;;;;;12.83;10.80;;;;;;;9.16;77.25;96478.75;5002819;28;20758;-68
2023/04/17 05:23:12;;;;;;;10.10;8.47;;;;;;;9.05;77.89;96486.19;4987601;28;20466;-69
2023/04/17 05:25:38;;;;;;;10.67;9.00;;;;;;;9.08;77.24;96491.28;4982189;28;20211;-68
2023/04/17 05:28:05;;;;;;;15.30;8.80;;;;;;;9.16;77.62;96484.00;4968656;28;20204;-69
2023/04/17 05:30:30;;;;;;;18.70;9.87;;;;;;;8.87;78.21;96490.28;4986238;28;20424;-69
2023/04/17 05:32:57;;;;;;;9.57;8.57;;;;;;;9.00;77.50;96483.72;4982402;28;20445;-69
2023/04/17 05:35:24;;;;;;;13.60;8.40;;;;;;;9.23;77.45;96489.88;4984851;28;20248;-68
2023/04/17 05:37:49;;;;;;;10.47;9.00;;;;;;;9.40;76.31;96484.88;4979764;28;20447;-68
2023/04/17 05:40:15;;;;;;;10.90;8.47;;;;;;;9.36;76.00;96491.13;4986818;28;20428;-68
2023/04/17 05:42:41;;;;;;;8.30;7.33;;;;;;;9.35;76.64;96492.03;4987258;28;20189;-69
2023/04/17 05:45:07;;;;;;;11.37;8.70;;;;;;;9.42;77.19;96496.13;4987188;28;20573;-68
2023/04/17 05:47:32;;;;;;;21.40;9.43;;;;;;;9.32;76.25;96489.53;4982792;28;20449;-68
2023/04/17 05:49:58;;;;;;;18.80;8.67;;;;;;;9.35;76.24;96494.63;4985010;28;20462;-70
2023/04/17 05:52:24;;;;;;;16.13;10.10;;;;;;;9.39;76.84;96490.16;4985721;28;20205;-69
2023/04/17 05:54:50;;;;;;;10.93;8.40;;;;;;;9.46;76.26;96500.34;4985703;28;20424;-69
2023/04/17 05:57:15;;;;;;;9.60;8.60;;;;;;;8.97;77.92;96491.66;4986722;28;20653;-69
2023/04/17 05:59:42;;;;;;;11.17;8.53;;;;;;;8.83;79.60;96504.41;4985509;28;20180;-69
2023/04/17 06:02:07;;;;;;;9.53;8.53;;;;;;;8.77;79.58;96500.25;4984376;28;20212;-67
2023/04/17 06:04:33;;;;;;;10.20;8.73;;;;;;;8.92;79.27;96509.31;4986050;28;20942;-68
2023/04/17 06:06:58;;;;;;;10.00;8.30;;;;;;;9.06;78.97;96508.81;4982484;28;20227;-68
2023/04/17 06:09:24;;;;;;;10.60;9.50;;;;;;;8.98;79.14;96509.09;4980896;28;20595;-68
2023/04/17 06:11:49;;;;;;;15.93;9.60;;;;;;;8.87;79.65;96504.22;4981739;28;20308;-68
2023/04/17 06:14:15;;;;;;;10.40;8.40;;;;;;;9.05;77.82;96504.50;4979141;28;20574;-68
2023/04/17 06:16:40;;;;;;;9.90;8.90;;;;;;;9.06;79.23;96509.66;4984407;28;20762;-68
2023/04/17 06:19:06;;;;;;;10.13;8.30;;;;;;;9.04;78.04;96502.78;4986754;28;20553;-69
2023/04/17 06:21:31;;;;;;;10.13;9.03;;;;;;;8.93;78.85;96513.66;4979104;28;20215;-67
2023/04/17 06:23:57;;;;;;;13.90;9.30;;;;;;;9.15;78.61;96523.34;4986370;28;20710;-67
2023/04/17 06:26:22;;;;;;;11.03;9.40;;;;;;;8.92;79.13;96522.38;4986274;28;20631;-67
2023/04/17 06:28:48;;;;;;;13.77;11.20;;;;;;;8.84;79.31;96513.97;4979443;28;20192;-68
2023/04/17 06:31:13;;;;;;;12.00;9.83;;;;;;;9.03;78.90;96522.03;4971758;28;20205;-67
2023/04/17 06:33:39;;;;;;;14.73;10.40;;;;;;;9.11;78.37;96517.34;4986379;28;20172;-68
2023/04/17 06:36:05;;;;;;;14.63;10.00;;;;;;;9.21;77.89;96523.09;4980487;28;20173;-68
2023/04/17 06:38:30;;;;;;;21.47;10.17;;;;;;;9.10;78.51;96526.97;4986266;28;20179;-68
2023/04/17 06:40:56;;;;;;;16.47;9.07;;;;;;;9.13;78.88;96527.78;4978814;28;20948;-68
2023/04/17 06:43:21;;;;;;;18.93;11.50;;;;;;;9.16;78.12;96525.03;4982982;28;20177;-68
2023/04/17 06:45:47;;;;;;;11.33;8.83;;;;;;;9.32;77.81;96526.19;4979061;28;20212;-68
2023/04/17 06:48:12;;;;;;;13.80;9.70;;;;;;;9.34;77.37;96529.59;4983739;28;20184;-68
2023/04/17 06:50:38;;;;;;;19.60;10.00;;;;;;;9.39;76.75;96527.66;4975694;28;20209;-67
2023/04/17 06:53:03;;;;;;;13.63;9.60;;;;;;;9.25;76.60;96527.31;4986014;28;20236;-68
2023/04/17 06:55:29;;;;;;;15.80;10.77;;;;;;;9.36;76.39;96532.19;4987364;28;20220;-68
2023/04/17 06:57:54;;;;;;;10.10;9.03;;;;;;;9.43;76.20;96529.28;4987258;28;20201;-67
2023/04/17 07:00:20;;;;;;;12.53;10.40;;;;;;;9.25;75.94;96536.03;4990702;28;20172;-68
2023/04/17 07:02:46;;;;;;;13.40;11.00;;;;;;;8.89;78.86;96538.22;4986009;28;20184;-69
2023/04/17 07:05:11;;;;;;;21.77;11.73;;;;;;;9.05;78.23;96531.53;4986121;28;20197;-67
2023/04/17 07:07:38;;;;;;;15.60;11.10;;;;;;;9.00;78.47;96538.69;4985539;28;20235;-67
2023/04/17 07:10:05;;;;;;;15.80;12.40;;;;;;;9.05;78.42;96530.69;4983003;28;20466;-69
2023/04/17 07:12:30;;;;;;;13.67;10.70;;;;;;;8.95;79.20;96537.13;4989809;28;20470;-68
2023/04/17 07:14:56;;;;;;;14.87;10.80;;;;;;;8.71;78.93;96538.84;4990333;28;20424;-69
2023/04/17 07:17:21;;;;;;;16.33;12.13;;;;;;;8.82;79.83;96537.56;4990552;28;20173;-69
2023/04/17 07:19:47;;;;;;;17.37;12.70;;;;;;;8.88;79.21;96539.97;4989536;28;20259;-68
2023/04/17 07:22:13;;;;;;;14.60;12.40;;;;;;;9.07;78.06;96547.16;4990557;28;20201;-68
2023/04/17 07:24:38;;;;;;;12.90;10.67;;;;;;;9.14;78.51;96542.56;4992217;28;20213;-68
2023/04/17 07:27:05;;;;;;;15.40;11.23;;;;;;;9.06;78.34;96548.94;4989683;28;20295;-68
2023/04/17 07:29:31;;;;;;;14.13;11.53;;;;;;;9.43;76.50;96550.22;4988868;28;20212;-68
2023/04/17 07:31:56;;;;;;;12.50;10.00;;;;;;;9.33;76.86;96549.72;4979137;28;20460;-68
2023/04/17 07:34:24;;;;;;;12.53;11.23;;;;;;;9.05;77.69;96552.47;4987193;28;20222;-67
2023/04/17 07:36:53;;;;;;;13.20;11.00;;;;;;;9.18;77.83;96549.41;4989452;28;20207;-67
2023/04/17 07:39:18;;;;;;;15.53;12.07;;;;;;;9.22;78.00;96557.09;4989755;28;20428;-68
2023/04/17 07:41:44;;;;;;;13.10;10.60;;;;;;;8.97;78.41;96562.34;4979382;28;20472;-68
2023/04/17 07:44:10;;;;;;;12.77;11.07;;;;;;;8.73;79.15;96552.72;4987082;28;20659;-68
2023/04/17 07:46:36;;;;;;;15.43;11.20;;;;;;;8.74;79.43;96560.53;4981865;28;20332;-68
2023/04/17 07:49:01;;;;;;;18.87;11.97;;;;;;;8.74;78.97;96560.53;4989564;28;20172;-67
2023/04/17 07:51:26;;;;;;;15.80;10.30;;;;;;;8.67;79.48;96562.50;4989611;28;20929;-68
2023/04/17 07:53:52;;;;;;;14.10;11.20;;;;;;;8.66;79.11;96573.00;4989523;28;20173;-69
2023/04/17 07:56:17;;;;;;;15.20;11.47;;;;;;;8.83;78.61;96565.44;4989320;28;20176;-69
2023/04/17 07:58:44;;;;;;;14.70;11.93;;;;;;;8.97;78.37;96566.72;4989523;28;20231;-68
2023/04/17 08:01:09;;;;;;;17.03;11.70;;;;;;;8.78;78.95;96569.97;4989721;28;20668;-69
2023/04/17 08:03:35;;;;;;;24.53;13.13;;;;;;;8.73;78.56;96568.44;4989419;28;20416;-69
2023/04/17 08:06:00;;;;;;;14.60;11.33;;;;;;;8.68;79.86;96572.03;4987969;28;20205;-69
2023/04/17 08:08:26;;;;;;;16.80;11.47;;;;;;;8.74;79.61;96571.00;4990464;28;20181;-68
2023/04/17 08:10:51;;;;;;;12.07;10.50;;;;;;;8.71;79.72;96567.63;4989818;28;20276;-68
2023/04/17 08:13:17;;;;;;;12.63;11.33;;;;;;;9.05;77.65;96572.56;4989823;28;20255;-68
2023/04/17 08:15:44;;;;;;;14.83;11.67;;;;;;;9.02;78.48;96580.50;4989759;28;20173;-68
2023/04/17 08:18:10;;;;;;;14.27;11.20;;;;;;;9.20;78.07;96579.84;4989473;28;20181;-68
2023/04/17 08:20:35;;;;;;;15.43;11.60;;;;;;;9.06;78.11;96575.09;4989600;28;20591;-68
2023/04/17 08:23:01;;;;;;;13.20;11.80;;;;;;;8.92;78.23;96582.59;4989634;28;20188;-68
2023/04/17 08:25:27;;;;;;;12.30;10.73;;;;;;;9.10;78.32;96579.34;4989309;28;20276;-68
2023/04/17 08:27:53;;;;;;;21.17;11.43;;;;;;;9.12;77.44;96584.53;4989092;28;20177;-68
2023/04/17 08:30:19;;;;;;;17.80;11.87;;;;;;;9.31;76.95;96584.72;4989196;28;20435;-67
2023/04/17 08:32:46;;;;;;;28.40;12.10;;;;;;;9.41;76.69;96580.84;4988855;28;20772;-67
2023/04/17 08:35:13;;;;;;;15.33;11.10;;;;;;;9.54;76.43;96584.75;4989281;28;20181;-67
2023/04/17 08:37:40;;;;;;;12.50;11.20;;;;;;;9.80;75.08;96575.03;4988965;28;20427;-67
2023/04/17 08:40:11;;;;;;;10.80;9.70;;;;;;;9.95;74.27;96568.38;4989142;28;20449;-68
2023/04/17 08:42:38;;;;;;;13.60;10.77;;;;;;;9.84;74.67;96576.63;4989004;28;20479;-68
2023/04/17 08:45:06;;;;;;;13.20;10.20;;;;;;;9.99;73.90;96572.56;4987678;28;20463;-68
2023/04/17 08:47:35;;;;;;;14.67;10.67;;;;;;;9.87;74.66;96581.75;4988780;28;20420;-68
2023/04/17 08:50:17;;;;;;;13.70;11.50;;;;;;;9.90;74.87;96576.41;4989053;28;20412;-68
2023/04/17 08:52:45;;;;;;;16.43;11.70;;;;;;;9.90;74.15;96583.44;4989496;28;20408;-68
2023/04/17 08:55:16;;;;;;;13.93;11.37;;;;;;;9.81;73.85;96582.00;4989198;28;20536;-68
2023/04/17 08:58:02;;;;;;;11.50;10.27;;;;;;;9.59;75.61;96587.19;4986902;28;20759;-68
2023/04/17 09:00:34;;;;;;;20.00;11.20;;;;;;;9.99;74.36;96575.19;4988172;28;20412;-69
2023/04/17 09:03:02;;;;;;;10.80;9.70;;;;;;;10.19;72.59;96579.66;4986825;28;20426;-68
2023/04/17 09:05:37;;;;;;;14.30;9.87;;;;;;;10.15;72.84;96580.69;5003162;28;20460;-68
2023/04/17 09:08:16;;;;;;;15.40;12.27;;;;;;;10.05;72.19;96576.72;4987958;28;20452;-68
2023/04/17 09:10:45;;;;;;;11.00;9.73;;;;;;;10.19;72.01;96582.28;4988309;28;20470;-68
2023/04/17 09:13:13;;;;;;;14.23;10.20;;;;;;;10.04;72.66;96568.00;4988139;28;20412;-68
2023/04/17 09:15:39;;;;;;;13.70;11.17;;;;;;;9.91;72.27;96570.25;4988090;28;20414;-68
2023/04/17 09:18:19;;;;;;;15.97;9.10;;;;;;;10.16;71.73;96571.91;4987938;28;20420;-68
2023/04/17 09:20:49;;;;;;;11.17;10.07;;;;;;;10.35;70.85;96579.94;4987783;28;20435;-68
2023/04/17 09:23:15;;;;;;;12.07;9.67;;;;;;;10.40;71.08;96580.63;4987922;28;20435;-68
2023/04/17 09:25:40;;;;;;;12.20;9.90;;;;;;;10.16;72.27;96585.03;4987683;28;20503;-68
2023/04/17 09:28:12;;;;;;;22.23;11.23;;;;;;;10.30;71.79;96581.88;4987589;28;20180;-68
2023/04/17 09:30:41;;;;;;;12.03;10.47;;;;;;;10.69;70.43;96575.94;4986125;28;20261;-69
2023/04/17 09:33:08;;;;;;;10.80;9.80;;;;;;;10.99;68.39;96565.91;4987610;28;20474;-68
2023/04/17 09:35:37;;;;;;;18.47;10.90;;;;;;;11.06;69.28;96571.78;4987711;28;20420;-68
2023/04/17 09:38:02;;;;;;;14.13;10.47;;;;;;;11.28;67.52;96569.91;4987546;28;20412;-69
2023/04/17 09:40:36;;;;;;;15.03;11.20;;;;;;;11.42;67.49;96567.50;4987444;28;20416;-68
2023/04/17 09:43:04;;;;;;;13.03;10.60;;;;;;;11.57;67.07;96565.13;4987801;28;20191;-68
2023/04/17 09:45:34;;;;;;;10.50;9.40;;;;;;;11.71;66.56;96564.50;4987433;28;20499;-68
2023/04/17 09:48:00;;;;;;;10.57;9.57;;;;;;;11.83;66.30;96564.81;4987060;28;20777;-68
2023/04/17 09:50:26;;;;;;;13.73;9.73;;;;;;;12.08;63.29;96561.88;4987229;28;20462;-68
2023/04/17 09:52:53;;;;;;;11.77;10.10;;;;;;;12.36;62.69;96563.22;4987341;28;21201;-68
2023/04/17 09:55:20;;;;;;;17.10;10.97;;;;;;;13.20;62.20;96557.28;4987390;28;20419;-68
2023/04/17 09:57:48;;;;;;;13.43;8.90;;;;;;;14.05;60.38;96548.38;4987407;28;20412;-67
2023/04/17 10:00:16;;;;;;;11.90;8.97;;;;;;;13.50;58.67;96554.84;4987563;28;20416;-68
2023/04/17 10:02:41;;;;;;;11.50;9.90;;;;;;;13.39;61.50;96554.56;4987250;28;20448;-69
2023/04/17 10:05:10;;;;;;;11.10;9.40;;;;;;;13.22;62.21;96551.00;4987149;28;20483;-67
2023/04/17 10:07:37;;;;;;;9.57;8.00;;;;;;;12.96;58.64;96552.34;4987000;28;20175;-67
2023/04/17 10:10:08;;;;;;;8.70;7.80;;;;;;;12.50;58.78;96559.91;4986985;28;20408;-67
2023/04/17 10:12:37;;;;;;;8.80;7.87;;;;;;;12.05;60.56;96553.31;4986966;28;20471;-68
2023/04/17 10:15:06;;;;;;;12.63;8.40;;;;;;;12.50;60.66;96552.88;4986909;28;20417;-69
2023/04/17 10:17:33;;;;;;;9.90;7.17;;;;;;;12.84;57.86;96545.91;4986784;28;20415;-69
2023/04/17 10:20:16;;;;;;;12.53;8.20;;;;;;;12.90;58.28;96534.22;4987292;28;20483;-69
2023/04/17 10:22:42;;;;;;;9.97;7.03;;;;;;;12.99;58.28;96538.16;4987172;28;20832;-69
2023/04/17 10:25:14;;;;;;;7.70;6.90;;;;;;;13.38;57.40;96537.06;4987163;28;20506;-68
2023/04/17 10:27:39;;;;;;;8.07;7.27;;;;;;;13.05;57.89;96533.44;4987066;28;20444;-69
2023/04/17 10:30:11;;;;;;;9.97;6.83;;;;;;;13.00;58.91;96529.34;4990301;28;20934;-68
2023/04/17 10:32:38;;;;;;;6.77;6.10;;;;;;;13.44;57.59;96523.53;4971504;28;20255;-68
2023/04/17 10:35:23;;;;;;;10.03;6.87;;;;;;;13.74;55.86;96516.59;4971558;28;20428;-68
2023/04/17 10:37:49;;;;;;;6.80;5.70;;;;;;;13.54;56.16;96519.50;4970519;28;20905;-68
2023/04/17 10:40:22;;;;;;;9.60;6.07;;;;;;;13.30;56.98;96522.50;4971583;28;20496;-68
2023/04/17 10:43:21;;;;;;;6.03;5.30;;;;;;;12.93;55.30;96519.09;4971350;28;20595;-68
2023/04/17 10:45:52;;;;;;;6.10;5.50;;;;;;;12.94;56.62;96519.94;4969389;28;20531;-68
2023/04/17 10:48:37;;;;;;;8.97;5.80;;;;;;;13.22;57.30;96518.53;4970676;28;20440;-67
2023/04/17 10:51:21;;;;;;;8.20;5.37;;;;;;;13.44;55.08;96507.72;4971142;28;21225;-68
2023/04/17 10:53:48;;;;;;;7.53;5.73;;;;;;;13.76;55.17;96500.69;4970791;28;20968;-68
2023/04/17 10:56:22;;;;;;;8.83;6.47;;;;;;;14.15;53.28;96500.28;4970651;28;20409;-68
2023/04/17 10:59:04;;;;;;;9.00;4.90;;;;;;;14.51;52.27;96499.09;4970813;28;20420;-68
2023/04/17 11:01:30;;;;;;;5.70;4.90;;;;;;;14.39;52.15;96494.53;4970825;28;20475;-68
2023/04/17 11:03:58;;;;;;;4.63;4.10;;;;;;;14.72;51.23;96489.13;4971005;28;20420;-68
2023/04/17 11:06:30;;;;;;;6.63;4.90;;;;;;;14.16;52.90;96499.31;4970637;28;20461;-68
2023/04/17 11:08:56;;;;;;;7.20;4.73;;;;;;;14.19;52.72;96490.38;4970460;28;20903;-68
2023/04/17 11:11:22;;;;;;;5.20;4.70;;;;;;;14.64;51.25;96491.34;4970715;28;20571;-70
2023/04/17 11:13:47;;;;;;;5.83;4.13;;;;;;;14.48;51.24;96480.81;4970567;28;20495;-68
2023/04/17 11:16:18;;;;;;;5.03;4.53;;;;;;;14.14;51.43;96484.53;4970260;28;20177;-69
2023/04/17 11:18:44;;;;;;;4.60;4.20;;;;;;;14.58;49.49;96483.78;4970820;28;20169;-69
2023/04/17 11:21:14;;;;;;;8.57;4.10;;;;;;;14.92;49.73;96477.34;4970540;28;20447;-68
2023/04/17 11:23:40;;;;;;;8.80;4.37;;;;;;;14.88;49.20;96470.56;4970855;28;20459;-67
2023/04/17 11:26:06;;;;;;;12.30;6.13;;;;;;;14.67;50.21;96472.69;4970116;28;21009;-69
2023/04/17 11:28:34;;;;;;;6.47;4.73;;;;;;;14.88;49.36;96473.22;4970572;28;20587;-69
2023/04/17 11:31:00;;;;;;;9.57;5.17;;;;;;;14.98;49.13;96470.88;4976995;28;20440;-70
2023/04/17 11:33:26;;;;;;;7.90;4.33;;;;;;;15.16;47.47;96468.88;4989647;28;20420;-69